Home > Products > Valid Products > TAF

000
FTUS41 KBUF 260200 AAB
TAFBUF
TAF AMD
KBUF 260255Z 2603/2624 32015G25KT P6SM SCT050
     FM260600 27012G24KT P6SM BKN040
     FM261200 27014G26KT P6SM BKN025
     FM262000 28014KT P6SM BKN025=



000
FTUS41 KBUF 260200 AAA
TAFIAG
TAF AMD
KIAG 260255Z 2603/2624 32012G25KT P6SM SCT050
     FM260600 28013G25KT P6SM BKN040
     FM261200 27013G25KT P6SM BKN025
     FM261500 28015KT P6SM BKN035
     FM262100 28015KT P6SM BKN080=



000
FTUS41 KBUF 260200 AAA
TAFART
TAF AMD
KART 260255Z 2603/2624 26012G20KT P6SM BKN050
     FM260900 27013G22KT 6SM -SHRA OVC035
     FM261400 29013KT 6SM -SHRA OVC025
     FM261700 29014KT P6SM VCSH OVC025
     FM262200 28013KT P6SM OVC035=



000
FTUS41 KBUF 260200 AAA
TAFROC
TAF AMD
KROC 260255Z 2603/2624 30012G25KT P6SM SCT050
     FM260600 28016G27KT P6SM BKN040
     FM261200 28016G28KT P6SM OVC025=



000
FTUS41 KBUF 260200 AAA
TAFJHW
TAF AMD
KJHW 260255Z 2603/2624 29019G25KT P6SM FEW250
     FM260600 30014G23KT P6SM SCT040
     FM261100 29015G25KT P6SM BKN025
     FM261800 29017KT P6SM BKN015
      AMD LTD TO CLD VIS AND WIND=



000
FTUS41 KBUF 260100 AAA
TAFBUF
TAF AMD
KBUF 260152Z 2602/2624 26011KT 4SM -TSRA SCT050CB
     FM260300 29013KT P6SM SCT050
     FM260600 27012G24KT P6SM BKN040
     FM261200 27014G26KT P6SM BKN025
     FM262000 28014KT P6SM BKN025=



000
FTUS41 KBUF 260100 AAA
TAFBUF
TAF AMD
KBUF 260152Z 2602/2624 26011KT 4SM -TSRA SCT050CB
     FM260300 29013KT P6SM SCT050
     FM260600 27012G24KT P6SM BKN040
     FM261200 27014G26KT P6SM BKN025
     FM262000 28014KT P6SM BKN025=



000
FTUS41 KBUF 252300
TAFJHW
TAF
KJHW 252338Z 2600/2624 26015G20KT P6SM BKN050
     FM260300 29019G20KT P6SM FEW250
     FM260600 30014G23KT P6SM SCT040
     FM261100 29015G25KT P6SM BKN025
     FM261800 29017KT P6SM BKN015
      AMD LTD TO CLD VIS AND WIND=



000
FTUS41 KBUF 252300
TAFROC
TAF
KROC 252338Z 2600/2624 28013G21KT P6SM FEW040 FEW250
     FM260100 28014G24KT P6SM SCT040
     FM260600 28016G27KT P6SM BKN040
     FM261200 28016G28KT P6SM OVC025=



000
FTUS41 KBUF 252300
TAFBUF
TAF
KBUF 252338Z 2600/2624 26011KT P6SM BKN015
     FM260300 29013KT P6SM SCT050
     FM260600 27012G24KT P6SM BKN040
     FM261200 27014G26KT P6SM BKN025
     FM262000 28014KT P6SM BKN025=



000
FTUS41 KBUF 252300
TAFIAG
TAF
KIAG 252338Z 2600/2624 26009KT P6SM FEW040 SCT050
     FM260200 29012KT P6SM SCT050
     FM260600 28013G25KT P6SM BKN040
     FM261200 27013G25KT P6SM BKN025
     FM261500 28015KT P6SM BKN035
     FM262100 28015KT P6SM BKN080=



000
FTUS41 KBUF 252300
TAFART
TAF
KART 252338Z 2600/2624 23007KT 6SM BR FEW040 FEW250
     FM260200 26012KT P6SM FEW250
     FM260500 27014G23KT P6SM VCSH OVC040
     FM260900 27013G22KT 6SM -SHRA OVC035
     FM261400 29013KT 6SM -SHRA OVC025
     FM261700 29014KT P6SM VCSH OVC025
     FM262200 28013KT P6SM OVC035=



000
FTUS41 KBUF 252100 AAA
TAFART
TAF AMD
KART 252154Z 2522/2618 25015G25KT P6SM SCT025 BKN035
     FM260100 25014G26KT P6SM BKN110
     FM260300 26015G27KT P6SM BKN040
     FM260500 27014G23KT P6SM VCSH OVC035
     FM260900 27013G22KT 6SM -SHRA OVC030=



000
FTUS41 KBUF 252100 AAA
TAFJHW
TAF AMD
KJHW 252154Z 2522/2618 26015G25KT P6SM SCT015 BKN025
     FM252300 27016G28KT P6SM SCT040 BKN130
     FM260900 29013G23KT P6SM BKN045
     FM261500 29018G24KT P6SM BKN030
      AMD LTD TO CLD VIS AND WIND=



000
FTUS41 KBUF 252100 AAA
TAFROC
TAF AMD
KROC 252154Z 2522/2618 26016G28KT P6SM SCT035 BKN070
     FM252300 26016G28KT P6SM FEW035
     FM260300 28016G28KT P6SM BKN035=



000
FTUS41 KBUF 252100 AAA
TAFBUF
TAF AMD
KBUF 252154Z 2522/2618 25018G25KT P6SM SCT035
      TEMPO 2522/2524 4SM BR BKN020
     FM260300 29013G24KT P6SM FEW045
     FM260600 27012G24KT P6SM BKN040
     FM261700 28015KT P6SM BKN030=



000
FTUS41 KBUF 252100 AAA
TAFIAG
TAF AMD
KIAG 252154Z 2522/2618 26015G25KT P6SM FEW025
     FM260600 28013G25KT P6SM BKN045
     FM261500 28015KT P6SM BKN035=



000
FTUS41 KBUF 251700 RRA
TAFIAG
TAF
KIAG 251741Z 2518/2618 23020G30KT P6SM SCT015 BKN045
     FM252000 25017G26KT P6SM SCT025 BKN035
      TEMPO 2520/2522 BKN025
     FM252200 26013G20KT P6SM SCT040 BKN150
     FM260600 28013G25KT P6SM BKN045
     FM261500 28015KT P6SM BKN035=



000
FTUS41 KBUF 251700 RRA
TAFART
TAF
KART 251741Z 2518/2618 22015G26KT P6SM VCSH SCT015 OVC050
     FM252000 22015G28KT P6SM VCSH SCT015 OVC030
     FM252300 25014G27KT P6SM SCT035 BKN045
     FM260100 25014G26KT P6SM BKN110
     FM260300 26015G27KT P6SM BKN040
     FM260500 27014G23KT P6SM VCSH OVC035
     FM260900 27013G22KT 6SM -SHRA OVC030=



000
FTUS41 KBUF 251700 RRA
TAFJHW
TAF
KJHW 251741Z 2518/2618 24017G29KT P6SM SCT015 BKN045
     FM252300 27016G28KT P6SM SCT040 BKN130
     FM260900 29013G23KT P6SM BKN045
     FM261500 29018G24KT P6SM BKN030
      AMD LTD TO CLD VIS AND WIND=



000
FTUS41 KBUF 251700 RRA
TAFROC
TAF
KROC 251741Z 2518/2618 24016G28KT P6SM SCT040 BKN150
     FM252000 25018G30KT P6SM SCT035 OVC045
     FM252200 26016G28KT P6SM SCT035 BKN050
     FM260300 28016G28KT P6SM BKN035=



000
FTUS41 KBUF 251700 RRA
TAFBUF
TAF
KBUF 251741Z 2518/2618 24024G34KT P6SM SCT015 SCT060
     FM251900 24023G34KT P6SM SCT015 BKN035
      TEMPO 2519/2522 BKN025
     FM252200 25018KT P6SM BKN045
     FM260300 29013G24KT P6SM FEW045
     FM260600 27012G24KT P6SM BKN040
     FM261700 28015KT P6SM BKN030=



000
FTUS41 KBUF 251700 RRA
TAFROC
TAF
KROC 251741Z 2518/2618 24016G28KT P6SM SCT040 BKN150
     FM252000 25018G30KT P6SM SCT035 OVC045
     FM252200 26016G28KT P6SM SCT035 BKN050
     FM260300 28016G28KT P6SM BKN035=



000
FTUS41 KBUF 251700 RRA
TAFIAG
TAF
KIAG 251741Z 2518/2618 23020G30KT P6SM SCT015 BKN045
     FM252000 25017G26KT P6SM SCT025 BKN035
      TEMPO 2520/2522 BKN025
     FM252200 26013G20KT P6SM SCT040 BKN150
     FM260600 28013G25KT P6SM BKN045
     FM261500 28015KT P6SM BKN035=



000
FTUS41 KBUF 251700 RRA
TAFART
TAF
KART 251741Z 2518/2618 22015G26KT P6SM VCSH SCT015 OVC050
     FM252000 22015G28KT P6SM VCSH SCT015 OVC030
     FM252300 25014G27KT P6SM SCT035 BKN045
     FM260100 25014G26KT P6SM BKN110
     FM260300 26015G27KT P6SM BKN040
     FM260500 27014G23KT P6SM VCSH OVC035
     FM260900 27013G22KT 6SM -SHRA OVC030=



000
FTUS41 KBUF 251700 RRA
TAFBUF
TAF
KBUF 251741Z 2518/2618 24024G34KT P6SM SCT015 SCT060
     FM251900 24023G34KT P6SM SCT015 BKN035
      TEMPO 2519/2522 BKN025
     FM252200 25018KT P6SM BKN045
     FM260300 29013G24KT P6SM FEW045
     FM260600 27012G24KT P6SM BKN040
     FM261700 28015KT P6SM BKN030=



000
FTUS41 KBUF 251700 RRA
TAFJHW
TAF
KJHW 251741Z 2518/2618 24017G29KT P6SM SCT015 BKN045
     FM252300 27016G28KT P6SM SCT040 BKN130
     FM260900 29013G23KT P6SM BKN045
     FM261500 29018G24KT P6SM BKN030
      AMD LTD TO CLD VIS AND WIND=



000
FTUS41 KBUF 251500 AAA
TAFART
TAF AMD
KART 251505Z 2515/2612 21012G18KT P6SM SCT045 BKN060
     FM251900 22014G24KT 6SM -SHRA SCT015 BKN035
     FM252200 25014G25KT P6SM SCT040 BKN100
     FM260300 26014KT P6SM BKN035
     FM260600 27014KT 6SM -SHRA BKN025=



000
FTUS41 KBUF 251500 AAB
TAFJHW
TAF AMD
KJHW 251505Z 2515/2612 22010KT P6SM FEW040 OVC090
     FM251600 24012G20KT P6SM SCT040 BKN090
     FM251800 26016G27KT P6SM SCT025 BKN035
     FM252300 26013G21KT P6SM SCT040 BKN130
     FM260300 28014KT P6SM SCT035
      AMD LTD TO CLD VIS AND WIND=



000
FTUS41 KBUF 251500 AAA
TAFBUF
TAF AMD
KBUF 251505Z 2515/2612 23012G20KT P6SM FEW020 SCT035 BKN120
     FM251600 23018G30KT P6SM FEW025 BKN035 BKN100
     FM251800 25018G34KT P6SM SCT025 BKN035
      TEMPO 2518/2521 BKN025
     FM252100 25014G27KT P6SM SCT040 BKN200
     FM260200 27012KT P6SM SCT060
     FM260800 27012KT P6SM BKN040=



000
FTUS41 KBUF 251500 AAA
TAFIAG
TAF AMD
KIAG 251505Z 2515/2612 23015G25KT P6SM FEW015 SCT040 BKN100
     FM251700 24020G32KT P6SM SCT015 BKN035
      TEMPO 2517/2520 BKN025
     FM252200 26014G23KT P6SM SCT040 BKN200
     FM260200 27012KT P6SM SCT070
     FM260900 27012KT P6SM BKN040=



000
FTUS41 KBUF 251500 AAA
TAFROC
TAF AMD
KROC 251505Z 2515/2612 23012G20KT P6SM SCT040 BKN060
     FM251900 25018G31KT P6SM SCT030 BKN045
     FM252300 26015G25KT P6SM SCT040 BKN200
     FM260200 27014KT P6SM BKN070
     FM260600 28016KT P6SM BKN035=



000
FTUS41 KBUF 251100 AAA
TAFJHW
TAF AMD
KJHW 251149Z 2512/2612 22008KT P6SM SCT025 BKN035
      TEMPO 2512/2514 BKN025
     FM251600 24015G22KT P6SM SCT025 BKN040
     FM252000 26016G27KT P6SM VCSH SCT025 BKN035
     FM252300 26013G21KT P6SM SCT040 BKN130
     FM260300 28014KT P6SM SCT035
      AMD LTD TO CLD VIS AND WIND=



000
FTUS41 KBUF 251100 AAA
TAFJHW
TAF AMD
KJHW 251149Z 2512/2612 22008KT P6SM SCT025 BKN035
      TEMPO 2512/2514 BKN025
     FM251600 24015G22KT P6SM SCT025 BKN040
     FM252000 26016G27KT P6SM VCSH SCT025 BKN035
     FM252300 26013G21KT P6SM SCT040 BKN130
     FM260300 28014KT P6SM SCT035
      AMD LTD TO CLD VIS AND WIND=



000
FTUS41 KBUF 251100 CCA
TAFBUF
TAF COR
KBUF 251148Z 2512/2612 23012KT P6SM BKN015
     FM251400 23012G20KT P6SM SCT015 BKN035
     FM251600 23018G30KT P6SM SCT025 BKN035
     FM251900 25018G34KT P6SM VCSH SCT025 BKN035
      TEMPO 2519/2522 BKN025
     FM252200 25014G27KT P6SM SCT040 BKN200
     FM260200 27012KT P6SM SCT060
     FM260800 27012KT P6SM BKN040=



000
FTUS41 KBUF 251100 CCA
TAFBUF
TAF COR
KBUF 251148Z 2512/2612 23012KT P6SM BKN015
     FM251400 23012G20KT P6SM SCT015 BKN035
     FM251600 23018G30KT P6SM SCT025 BKN035
     FM251900 25018G34KT P6SM VCSH SCT025 BKN035
      TEMPO 2519/2522 BKN025
     FM252200 25014G27KT P6SM SCT040 BKN200
     FM260200 27012KT P6SM SCT060
     FM260800 27012KT P6SM BKN040=



000
FTUS41 KBUF 251100
TAFIAG
TAF
KIAG 251120Z 2512/2612 23010KT P6SM SCT015 BKN035
     FM251500 22015G25KT P6SM SCT040 BKN060
     FM251900 24020G32KT P6SM VCSH SCT015 BKN025
     FM252200 26014G23KT P6SM SCT040 BKN200
     FM260200 27012KT P6SM SCT070
     FM260900 27012KT P6SM BKN040=



000
FTUS41 KBUF 251100
TAFROC
TAF
KROC 251120Z 2512/2612 22007KT P6SM SCT025 BKN040
     FM251530 23014G22KT P6SM SCT040 BKN060
     FM252000 25018G31KT P6SM VCSH SCT035 BKN045
     FM252300 26015G25KT P6SM SCT040 BKN200
     FM260200 27014KT P6SM BKN070
     FM260600 28016KT P6SM BKN035=



000
FTUS41 KBUF 251100
TAFART
TAF
KART 251120Z 2512/2612 21005KT P6SM SCT025 BKN040
     FM251600 22014G20KT P6SM SCT025 BKN040
     FM252000 22014G24KT 6SM -SHRA SCT015 BKN025
     FM260000 25014G25KT P6SM SCT040 BKN100
     FM260300 26014KT P6SM BKN035
     FM260600 27014KT 6SM -SHRA BKN025=



000
FTUS41 KBUF 251100
TAFJHW
TAF
KJHW 251120Z 2512/2612 22010KT P6SM SCT025 BKN035
     FM251600 24015G22KT P6SM SCT025 BKN040
     FM252000 26016G27KT P6SM VCSH SCT025 BKN035
     FM252300 26013G21KT P6SM SCT040 BKN130
     FM260300 28014KT P6SM SCT035
      AMD LTD TO CLD VIS AND WIND=



000
FTUS41 KBUF 251100
TAFBUF
TAF
KBUF 251120Z 2512/2612 23012KT P6SM BKN015
     FM251400 23012G20KT P6SM SCT015 BKN035
     FM251600 23018G30KT P6SM SCT025 BKN035
     FM251900 25018G34KT P6SM VCSH SCT025 BKN035
     FM252200 25014G27KT P6SM SCT040 BKN200
     FM260200 27012KT P6SM SCT060
     FM260800 27012KT P6SM BKN040=



000
FTUS41 KBUF 251100
TAFROC
TAF
KROC 251120Z 2512/2612 22007KT P6SM SCT025 BKN040
     FM251530 23014G22KT P6SM SCT040 BKN060
     FM252000 25018G31KT P6SM VCSH SCT035 BKN045
     FM252300 26015G25KT P6SM SCT040 BKN200
     FM260200 27014KT P6SM BKN070
     FM260600 28016KT P6SM BKN035=



000
FTUS41 KBUF 251100
TAFART
TAF
KART 251120Z 2512/2612 21005KT P6SM SCT025 BKN040
     FM251600 22014G20KT P6SM SCT025 BKN040
     FM252000 22014G24KT 6SM -SHRA SCT015 BKN025
     FM260000 25014G25KT P6SM SCT040 BKN100
     FM260300 26014KT P6SM BKN035
     FM260600 27014KT 6SM -SHRA BKN025=



000
FTUS41 KBUF 251100
TAFJHW
TAF
KJHW 251120Z 2512/2612 22010KT P6SM SCT025 BKN035
     FM251600 24015G22KT P6SM SCT025 BKN040
     FM252000 26016G27KT P6SM VCSH SCT025 BKN035
     FM252300 26013G21KT P6SM SCT040 BKN130
     FM260300 28014KT P6SM SCT035
      AMD LTD TO CLD VIS AND WIND=



000
FTUS41 KBUF 251100
TAFBUF
TAF
KBUF 251120Z 2512/2612 23012KT P6SM BKN015
     FM251400 23012G20KT P6SM SCT015 BKN035
     FM251600 23018G30KT P6SM SCT025 BKN035
     FM251900 25018G34KT P6SM VCSH SCT025 BKN035
     FM252200 25014G27KT P6SM SCT040 BKN200
     FM260200 27012KT P6SM SCT060
     FM260800 27012KT P6SM BKN040=



000
FTUS41 KBUF 251100
TAFIAG
TAF
KIAG 251120Z 2512/2612 23010KT P6SM SCT015 BKN035
     FM251500 22015G25KT P6SM SCT040 BKN060
     FM251900 24020G32KT P6SM VCSH SCT015 BKN025
     FM252200 26014G23KT P6SM SCT040 BKN200
     FM260200 27012KT P6SM SCT070
     FM260900 27012KT P6SM BKN040=



000
FTUS41 KBUF 250900 AAB
TAFBUF
TAF AMD
KBUF 250940Z 2510/2606 22006KT P6SM BKN015
      TEMPO 2510/2513 SCT015 BKN040
     FM251400 23012G20KT P6SM BKN040
     FM251700 23020G34KT P6SM SCT025 BKN035
     FM252000 25018G32KT P6SM VCSH SCT015 BKN025
     FM252300 26012G22KT P6SM FEW040 SCT250
     FM260200 27012KT P6SM SCT045=



000
FTUS41 KBUF 250900 AAB
TAFJHW
TAF AMD
KJHW 250913Z 2509/2606 22004KT P6SM BKN035
      TEMPO 2510/2513 BKN025
     FM251300 23008KT P6SM SCT025 BKN035
     FM251700 24016G24KT P6SM SCT015 BKN025
     FM252000 26016G27KT P6SM VCSH SCT015 BKN025
     FM260000 27013KT P6SM BKN250
     FM260400 28015KT P6SM SCT040
      AMD LTD TO CLD VIS AND WIND=



000
FTUS41 KBUF 250900 AAA
TAFART
TAF AMD
KART 250913Z 2509/2606 VRB04KT P6SM BKN060
     FM251200 21006KT P6SM SCT025 BKN035
     FM251600 22014G20KT P6SM SCT015 BKN035
     FM252000 22014G24KT 6SM -SHRA SCT015 OVC025
     FM260000 25014G25KT P6SM SCT035 BKN150
     FM260400 26014KT P6SM VCSH BKN025=



000
FTUS41 KBUF 250900 AAA
TAFIAG
TAF AMD
KIAG 250912Z 2509/2606 24010KT P6SM OVC040
     FM251400 22014KT P6SM SCT040 BKN070
     FM251500 22018G28KT P6SM SCT040 BKN060
     FM251900 24020G32KT P6SM VCSH SCT015 BKN025
     FM252200 26014G23KT P6SM SCT040 BKN250
     FM260200 27012KT P6SM SCT050=



000
FTUS41 KBUF 250900 AAA
TAFBUF
TAF AMD
KBUF 250912Z 2509/2606 23006KT P6SM SCT015 OVC040
     FM251400 23012G20KT P6SM BKN040
     FM251700 23020G34KT P6SM SCT025 BKN035
     FM252000 25018G32KT P6SM VCSH SCT015 BKN025
     FM252300 26012G22KT P6SM FEW040 SCT250
     FM260200 27012KT P6SM SCT045=



000
FTUS41 KBUF 250900 AAA
TAFROC
TAF AMD
KROC 250912Z 2509/2606 22006KT 6SM BR BKN050
     FM251200 22008KT P6SM BKN040
     FM251600 23013G22KT P6SM SCT040 BKN250
     FM252000 25018G32KT P6SM VCSH SCT035 BKN050
     FM252300 26015G25KT P6SM SCT040 BKN200
     FM260100 27014KT P6SM BKN040=



000
FTUS41 KBUF 250700 AAA
TAFJHW
TAF AMD
KJHW 250757Z 2508/2606 23004KT P6SM BKN040
     FM251030 22005KT P6SM BKN025
     FM251300 23008KT P6SM SCT025 BKN035
     FM251700 24016G24KT P6SM SCT015 BKN025
     FM252000 26016G27KT P6SM VCSH SCT015 BKN025
     FM260000 27013KT P6SM BKN250
     FM260400 28015KT P6SM SCT040
      AMD LTD TO CLD VIS AND WIND=



000
FTUS41 KBUF 250500
TAFBUF
TAF
KBUF 250540Z 2506/2606 23006KT P6SM OVC040
     FM251400 23012G20KT P6SM BKN040
     FM251700 23020G34KT P6SM SCT025 BKN035
     FM252000 25018G32KT P6SM VCSH SCT015 BKN025
     FM252300 26012G22KT P6SM FEW040 SCT250
     FM260200 27012KT P6SM SCT045=



000
FTUS41 KBUF 250500
TAFJHW
TAF
KJHW 250540Z 2506/2606 23004KT P6SM BKN050
     FM250900 22005KT P6SM BKN025
     FM251300 23008KT P6SM SCT025 BKN035
     FM251700 24016G24KT P6SM SCT015 BKN025
     FM252000 26016G27KT P6SM VCSH SCT015 BKN025
     FM260000 27013KT P6SM BKN250
     FM260400 28015KT P6SM SCT040
      AMD LTD TO CLD VIS AND WIND=



000
FTUS41 KBUF 250500
TAFART
TAF
KART 250540Z 2506/2606 21004KT P6SM BKN250
     FM251200 21006KT P6SM SCT025 BKN035
     FM251600 22014G20KT P6SM SCT015 BKN035
     FM252000 22014G24KT 6SM -SHRA SCT015 OVC025
     FM260000 25014G25KT P6SM SCT035 BKN150
     FM260400 26014KT P6SM VCSH BKN025=



000
FTUS41 KBUF 250500
TAFROC
TAF
KROC 250540Z 2506/2606 24006KT 6SM BR BKN045
     FM251200 22008KT P6SM BKN040
     FM251600 23013G22KT P6SM SCT040 BKN250
     FM252000 25018G32KT P6SM VCSH SCT035 BKN050
     FM252300 26015G25KT P6SM SCT040 BKN200
     FM260100 27014KT P6SM BKN040=



000
FTUS41 KBUF 250500
TAFIAG
TAF
KIAG 250540Z 2506/2606 24006KT P6SM OVC040
     FM251400 22014KT P6SM SCT040 BKN070
     FM251500 22018G28KT P6SM SCT040 BKN060
     FM251900 24020G32KT P6SM VCSH SCT015 BKN025
     FM252200 26014G23KT P6SM SCT040 BKN250
     FM260200 27012KT P6SM SCT050=



000
FTUS41 KBUF 250300 AAA
TAFROC
TAF AMD
KROC 250314Z 2503/2524 22005KT P6SM BKN060
     FM250500 24006KT P6SM BKN040
     FM251600 23013G20KT P6SM SCT040
     FM251800 24016G27KT P6SM BKN040
     FM252000 25018G32KT P6SM OVC040=



000
FTUS41 KBUF 250300 AAA
TAFJHW
TAF AMD
KJHW 250314Z 2503/2524 25004KT P6SM BKN040
     FM250600 22006KT P6SM BKN020
     FM251900 24015G23KT P6SM BKN035
     FM252200 26014G21KT P6SM OVC040
      AMD LTD TO CLD VIS AND WIND=



000
FTUS41 KBUF 250300 AAA
TAFBUF
TAF AMD
KBUF 250314Z 2503/2524 18006KT P6SM BKN050
     FM251000 23007KT P6SM BKN025
     FM251600 23017G26KT P6SM BKN025
     FM251900 24020G34KT P6SM OVC035
     FM252300 27015G23KT P6SM BKN040=



000
FTUS41 KBUF 250300 AAA
TAFART
TAF AMD
KART 250314Z 2503/2524 VRB03KT P6SM FEW250
     FM250900 00000KT P6SM BKN040
     FM251200 21004KT P6SM BKN020
     FM251600 22012G18KT P6SM BKN020
     FM252000 21013G19KT 5SM SHRA OVC025
     FM252200 22013G20KT P6SM -SHRA OVC040=



000
FTUS41 KBUF 250300 AAA
TAFIAG
TAF AMD
KIAG 250314Z 2503/2524 24007KT P6SM BKN050
     FM251000 23006KT P6SM BKN025
     FM251500 23015G21KT P6SM BKN025
     FM251900 24020G32KT P6SM OVC025
     FM252100 26017G28KT P6SM OVC040=



000
FTUS41 KBUF 242300
TAFJHW
TAF
KJHW 242336Z 2500/2524 28007KT P6SM FEW250
     FM250200 25004KT P6SM BKN040
     FM250600 22006KT P6SM BKN020
     FM251900 24015G23KT P6SM BKN035
     FM252200 26014G21KT P6SM OVC040
      AMD LTD TO CLD VIS AND WIND=



000
FTUS41 KBUF 242300
TAFART
TAF
KART 242336Z 2500/2524 22005KT P6SM BKN250
     FM250300 VRB03KT P6SM FEW250
     FM250900 00000KT P6SM BKN040
     FM251200 21004KT P6SM BKN020
     FM251600 22012G18KT P6SM BKN020
     FM252000 21013G19KT 5SM SHRA OVC025
     FM252200 22013G20KT P6SM -SHRA OVC040=



000
FTUS41 KBUF 242300
TAFIAG
TAF
KIAG 242336Z 2500/2524 23007KT P6SM FEW250
     FM250100 24007KT P6SM BKN040
     FM251000 23006KT P6SM BKN025
     FM251500 23015G21KT P6SM BKN025
     FM251900 24020G32KT P6SM OVC025
     FM252100 26017G28KT P6SM OVC040=



000
FTUS41 KBUF 242300
TAFBUF
TAF
KBUF 242336Z 2500/2524 25007KT P6SM FEW250
     FM250200 24006KT P6SM BKN040
     FM251000 23007KT P6SM BKN025
     FM251600 23017G26KT P6SM BKN025
     FM251900 24020G34KT P6SM OVC035
     FM252300 27015G23KT P6SM BKN040=



000
FTUS41 KBUF 242300
TAFROC
TAF
KROC 242336Z 2500/2524 27007KT P6SM SCT200
     FM250500 24006KT P6SM BKN040
     FM251600 23013G20KT P6SM SCT040
     FM251800 24016G27KT P6SM BKN040
     FM252000 25018G32KT P6SM OVC040=



000
FTUS41 KBUF 242100 AAA
TAFBUF
TAF AMD
KBUF 242142Z 2422/2518 25012KT P6SM BKN200
     FM242300 24006KT P6SM SCT100 SCT250
     FM250500 23006KT P6SM BKN035
     FM250900 23007KT P6SM OVC025
     FM251300 23013KT P6SM BKN035
     FM251600 23018G28KT P6SM BKN080=



000
FTUS41 KBUF 242100 AAA
TAFJHW
TAF AMD
KJHW 242142Z 2422/2518 27005KT P6SM SCT200
     FM250500 23005KT P6SM BKN040
     FM250700 22006KT P6SM OVC030
     FM250900 23006KT P6SM OVC020
     FM251400 23012KT P6SM BKN090
     FM251700 23014G21KT P6SM BKN070
      AMD LTD TO CLD VIS AND WIND=



000
FTUS41 KBUF 242100 AAA
TAFART
TAF AMD
KART 242142Z 2422/2518 24007KT P6SM SKC
     FM250000 VRB03KT P6SM SKC
     FM251000 VRB03KT P6SM BKN035
     FM251300 21007KT P6SM BKN030
     FM251500 22012KT P6SM BKN025
     FM251700 22013G21KT P6SM BKN070=



000
FTUS41 KBUF 242100 AAA
TAFROC
TAF AMD
KROC 242142Z 2422/2518 26010KT P6SM SCT250
     FM242300 24006KT P6SM SCT250
     FM250800 23005KT P6SM BKN040
     FM251100 22005KT P6SM OVC030
     FM251400 22009KT P6SM BKN035
     FM251700 24014G24KT P6SM BKN080=



000
FTUS41 KBUF 242100 AAA
TAFIAG
TAF AMD
KIAG 242142Z 2422/2518 25010KT P6SM BKN200
     FM242300 25006KT P6SM SCT100 SCT250
     FM250500 24005KT P6SM BKN035
     FM250900 23007KT P6SM OVC030
     FM251300 22012KT P6SM BKN035
     FM251600 23018G28KT P6SM BKN080=



000
FTUS41 KBUF 241700
TAFROC
TAF
KROC 241735Z 2418/2518 28012KT P6SM SCT250
     FM242300 24006KT P6SM SCT250
     FM250800 23005KT P6SM BKN040
     FM251100 22005KT P6SM OVC030
     FM251400 22009KT P6SM BKN035
     FM251700 24014G24KT P6SM BKN080=



000
FTUS41 KBUF 241700
TAFJHW
TAF
KJHW 241735Z 2418/2518 27009KT P6SM BKN200
     FM242300 26005KT P6SM SCT150
     FM250500 23005KT P6SM BKN040
     FM250700 22006KT P6SM OVC030
     FM250900 23006KT P6SM OVC020
     FM251400 23012KT P6SM BKN090
     FM251700 23014G21KT P6SM BKN070
      AMD LTD TO CLD VIS AND WIND=



000
FTUS41 KBUF 241700
TAFART
TAF
KART 241735Z 2418/2518 27007KT P6SM SKC
     FM250000 VRB03KT P6SM SKC
     FM251000 VRB03KT P6SM BKN035
     FM251300 21007KT P6SM BKN030
     FM251500 22012KT P6SM BKN025
     FM251700 22013G21KT P6SM BKN070=



000
FTUS41 KBUF 241700
TAFIAG
TAF
KIAG 241735Z 2418/2518 27012KT P6SM BKN200
     FM242300 25006KT P6SM SCT100 SCT250
     FM250500 24005KT P6SM BKN035
     FM250900 23007KT P6SM OVC030
     FM251300 22012KT P6SM BKN035
     FM251600 23018G28KT P6SM BKN080=



000
FTUS41 KBUF 241700
TAFBUF
TAF
KBUF 241735Z 2418/2518 25012KT P6SM BKN200
     FM242300 24006KT P6SM SCT100 SCT250
     FM250500 23006KT P6SM BKN035
     FM250900 23007KT P6SM OVC025
     FM251300 23013KT P6SM BKN035
     FM251600 23018G28KT P6SM BKN080=



000
FTUS41 KBUF 241500 AAA
TAFROC
TAF AMD
KROC 241501Z 2415/2512 27011KT P6SM FEW250
     FM250000 26006KT P6SM SCT200
     FM250400 25006KT P6SM BKN200
     FM251100 23006KT P6SM BKN035=



000
FTUS41 KBUF 241500 AAA
TAFART
TAF AMD
KART 241501Z 2415/2512 34005KT P6SM SKC
     FM241700 31006KT P6SM SKC
     FM242000 28006KT P6SM SCT120
     FM250000 24005KT P6SM FEW250
     FM250600 25004KT P6SM SCT250=



000
FTUS41 KBUF 241500 AAA
TAFJHW
TAF AMD
KJHW 241501Z 2415/2512 30006KT P6SM SCT250
     FM241700 28009KT P6SM SCT250
     FM250000 26006KT P6SM SCT250
     FM250600 23005KT P6SM BKN025
      AMD LTD TO CLD VIS AND WIND=



000
FTUS41 KBUF 241500 AAA
TAFIAG
TAF AMD
KIAG 241501Z 2415/2512 30007KT P6SM SCT250
     FM241700 27009KT P6SM SCT250
     FM250000 24006KT P6SM SCT250
     FM250600 24006KT P6SM BKN035
     FM251000 23007KT P6SM BKN025=



000
FTUS41 KBUF 241500 AAA
TAFBUF
TAF AMD
KBUF 241501Z 2415/2512 25009KT P6SM SCT250
     FM250000 25007KT P6SM SCT250
     FM250600 24006KT P6SM BKN035
     FM251000 23007KT P6SM BKN025=



000
FTUS41 KBUF 241200 CCA
TAFJHW
TAF COR
KJHW 241221Z 2412/2512 VRB03KT 1/2SM FG BKN002
     FM241315 28004KT P6SM SCT250
     FM241600 28009KT P6SM SCT250
     FM250000 26006KT P6SM SCT250
     FM250600 23005KT P6SM BKN025
      AMD LTD TO CLD VIS AND WIND=



000
FTUS41 KBUF 241100
TAFART
TAF
KART 241123Z 2412/2512 VRB03KT P6SM BKN080
     FM241600 31005KT P6SM BKN090
     FM242000 28006KT P6SM SCT120
     FM250000 24005KT P6SM FEW250
     FM250600 25004KT P6SM SCT250=



000
FTUS41 KBUF 241100
TAFIAG
TAF
KIAG 241123Z 2412/2512 27004KT P6SM FEW250
     FM241600 27009KT P6SM SCT250
     FM250000 24006KT P6SM SCT250
     FM250600 24006KT P6SM BKN035
     FM251000 23007KT P6SM BKN025=



000
FTUS41 KBUF 241100
TAFROC
TAF
KROC 241123Z 2412/2512 27009KT P6SM SCT050
     FM241400 28011KT P6SM FEW250
     FM250000 26006KT P6SM SCT200
     FM250400 25006KT P6SM BKN200
     FM251100 23006KT P6SM BKN035=



000
FTUS41 KBUF 241100
TAFBUF
TAF
KBUF 241123Z 2412/2512 20005KT P6SM FEW250
     FM241600 26010KT P6SM SCT250
     FM250000 25007KT P6SM SCT250
     FM250600 24006KT P6SM BKN035
     FM251000 23007KT P6SM BKN025=



000
FTUS41 KBUF 241100
TAFJHW
TAF
KJHW 241123Z 2412/2512 31004KT P6SM SCT250
     FM241600 28009KT P6SM SCT250
     FM250000 26006KT P6SM SCT250
     FM250600 23005KT P6SM BKN025
      AMD LTD TO CLD VIS AND WIND=



000
FTUS41 KBUF 240900 AAA
TAFROC
TAF AMD
KROC 240917Z 2409/2506 31008KT P6SM BKN035
     FM241200 29007KT P6SM SCT250
     FM241500 28011KT P6SM FEW250
     FM250000 26006KT P6SM SCT250=



000
FTUS41 KBUF 240900 AAA
TAFBUF
TAF AMD
KBUF 240917Z 2409/2506 25005KT P6SM FEW250
     FM241300 27006KT P6SM FEW250
     FM241600 26010KT P6SM SCT250
     FM250000 25007KT P6SM SCT060=



000
FTUS41 KBUF 240900 AAA
TAFIAG
TAF AMD
KIAG 240917Z 2409/2506 31005KT P6SM FEW250
     FM241300 28006KT P6SM FEW250
     FM241600 26009KT P6SM SCT250
     FM250000 24006KT P6SM SCT060=



000
FTUS41 KBUF 240900 AAA
TAFART
TAF AMD
KART 240917Z 2409/2506 VRB03KT P6SM SCT060 OVC100
     FM241200 36004KT P6SM BKN050
     FM241600 31005KT P6SM BKN070
     FM242000 28006KT P6SM SCT150
     FM242300 25005KT P6SM FEW250=



000
FTUS41 KBUF 240800 AAA
TAFJHW
TAF AMD
KJHW 240828Z 2408/2506 29006KT 2SM BR BKN003
     FM241300 28005KT P6SM SCT250
     FM241500 29009KT P6SM SCT200
     FM250000 26006KT P6SM SCT050
     FM250500 23005KT P6SM BKN035
      AMD LTD TO CLD VIS AND WIND=



000
FTUS41 KBUF 240500
TAFIAG
TAF
KIAG 240538Z 2406/2506 32008KT P6SM SKC
     FM240900 30006KT P6SM FEW250
     FM241300 28006KT P6SM FEW250
     FM241600 26009KT P6SM SCT250
     FM250000 24006KT P6SM SCT060=



000
FTUS41 KBUF 240500
TAFJHW
TAF
KJHW 240538Z 2406/2506 31005KT P6SM FEW250
     FM240800 29004KT 2SM BR SCT003
     FM241300 28005KT P6SM SCT250
     FM241500 29009KT P6SM SCT200
     FM250000 26006KT P6SM SCT050
     FM250500 23005KT P6SM BKN035
      AMD LTD TO CLD VIS AND WIND=



000
FTUS41 KBUF 240500
TAFBUF
TAF
KBUF 240538Z 2406/2506 31006KT P6SM FEW050
     FM240900 29005KT P6SM FEW250
     FM241300 27006KT P6SM FEW250
     FM241600 26010KT P6SM SCT250
     FM250000 25007KT P6SM SCT060=



000
FTUS41 KBUF 240500
TAFART
TAF
KART 240538Z 2406/2506 03007KT P6SM OVC040
     FM241200 36004KT P6SM BKN050
     FM241600 31005KT P6SM BKN070
     FM242000 28006KT P6SM SCT150
     FM242300 25005KT P6SM FEW250=



000
FTUS41 KBUF 240500
TAFROC
TAF
KROC 240538Z 2406/2506 31006KT P6SM BKN035
     FM240900 29007KT P6SM SCT250
     FM241500 28011KT P6SM FEW250
     FM250000 26006KT P6SM SCT250=



000
FTUS41 KBUF 240300 AAA
TAFIAG
TAF AMD
KIAG 240301Z 2403/2424 32006KT P6SM SCT040
     FM240700 28004KT P6SM SKC
     FM240900 28004KT 5SM BR SCT003
     FM241300 28008KT P6SM SKC
     FM242100 23008KT P6SM BKN100=



000
FTUS41 KBUF 240300 AAA
TAFJHW
TAF AMD
KJHW 240301Z 2403/2424 35005KT P6SM SKC
     FM240400 33005KT P6SM SCT008
     FM240700 31005KT P6SM BKN008
     FM241200 29008KT P6SM SKC
     FM242000 27006KT P6SM BKN100
      AMD LTD TO CLD VIS AND WIND=



000
FTUS41 KBUF 240300 AAA
TAFART
TAF AMD
KART 240301Z 2403/2424 03007KT P6SM OVC025
     FM240700 01005KT P6SM BKN060
     FM241400 32006KT P6SM BKN100=



000
FTUS41 KBUF 240300 AAA
TAFIAG
TAF AMD
KIAG 240301Z 2403/2424 32006KT P6SM SCT040
     FM240700 28004KT P6SM SKC
     FM240900 28004KT 5SM BR SCT003
     FM241300 28008KT P6SM SKC
     FM242100 23008KT P6SM BKN100=



000
FTUS41 KBUF 240300 AAA
TAFROC
TAF AMD
KROC 240301Z 2403/2424 33008KT P6SM BKN040
     FM240800 27006KT P6SM SCT040
     FM241400 28010KT P6SM SKC=



000
FTUS41 KBUF 240300 AAA
TAFJHW
TAF AMD
KJHW 240301Z 2403/2424 35005KT P6SM SKC
     FM240400 33005KT P6SM SCT008
     FM240700 31005KT P6SM BKN008
     FM241200 29008KT P6SM SKC
     FM242000 27006KT P6SM BKN100
      AMD LTD TO CLD VIS AND WIND=



000
FTUS41 KBUF 240300 AAA
TAFBUF
TAF AMD
KBUF 240301Z 2403/2424 32006KT P6SM SCT040
     FM240700 28005KT P6SM SKC
     FM241500 26008KT P6SM SKC
     FM242100 24008KT P6SM BKN100=



000
FTUS41 KBUF 240300 AAA
TAFART
TAF AMD
KART 240301Z 2403/2424 03007KT P6SM OVC025
     FM240700 01005KT P6SM BKN060
     FM241400 32006KT P6SM BKN100=



000
FTUS41 KBUF 240300 AAA
TAFBUF
TAF AMD
KBUF 240301Z 2403/2424 32006KT P6SM SCT040
     FM240700 28005KT P6SM SKC
     FM241500 26008KT P6SM SKC
     FM242100 24008KT P6SM BKN100=



000
FTUS41 KBUF 240300 AAA
TAFROC
TAF AMD
KROC 240301Z 2403/2424 33008KT P6SM BKN040
     FM240800 27006KT P6SM SCT040
     FM241400 28010KT P6SM SKC=



000
FTUS41 KBUF 232300
TAFIAG
TAF
KIAG 232328Z 2400/2424 32006KT P6SM SCT040
     FM240700 28004KT P6SM SKC
     FM240900 28004KT 5SM BR SCT002
     FM241300 28008KT P6SM SKC
     FM242100 23008KT P6SM BKN100=



000
FTUS41 KBUF 232300
TAFJHW
TAF
KJHW 232328Z 2400/2424 31005KT P6SM SKC
     FM240800 29004KT 5SM BR SCT008
     FM241300 29008KT P6SM SKC
     FM242000 27006KT P6SM BKN100
      AMD LTD TO CLD VIS AND WIND=



000
FTUS41 KBUF 232300
TAFBUF
TAF
KBUF 232328Z 2400/2424 31006KT P6SM SCT040
     FM240700 28005KT P6SM SKC
     FM241500 26008KT P6SM SKC
     FM242100 24008KT P6SM BKN100=



000
FTUS41 KBUF 232300
TAFART
TAF
KART 232328Z 2400/2424 03012KT P6SM VCSH OVC015
     FM240200 03007KT P6SM OVC025
     FM240700 01005KT P6SM BKN060
     FM241400 32006KT P6SM BKN100=



000
FTUS41 KBUF 232300
TAFROC
TAF
KROC 232328Z 2400/2424 33008KT P6SM BKN040
     FM240800 27006KT P6SM SCT040
     FM241400 28010KT P6SM SKC=



000
FTUS41 KBUF 232000 CCA
TAFBUF
TAF COR
KBUF 232059Z 2321/2418 31012KT P6SM SKC
     FM240000 30006KT P6SM SKC
     FM241500 27005KT P6SM SCT250=



000
FTUS41 KBUF 232000 AAA
TAFBUF
TAF AMD
KBUF 232057Z 2321/2418 31010KT P6SM SKC
     FM240000 30006KT P6SM SKC
     FM241500 27005KT P6SM SCT250=



000
FTUS41 KBUF 232000 AAA
TAFJHW
TAF AMD
KJHW 232057Z 2321/2418 33012KT P6SM SKC
     FM240000 31005KT P6SM SKC
     FM241200 29004KT P6SM SCT250
      AMD LTD TO CLD VIS AND WIND=



000
FTUS41 KBUF 232000 AAB
TAFART
TAF AMD
KART 232057Z 2321/2418 01014KT P6SM OVC030
     FM232300 02010KT P6SM VCSH OVC020
     FM240700 03003KT P6SM OVC040
     FM241500 32006KT P6SM BKN100=



000
FTUS41 KBUF 232000 AAB
TAFROC
TAF AMD
KROC 232057Z 2321/2418 32016KT P6SM BKN060
     FM232300 34010KT P6SM BKN040
     FM240700 27006KT P6SM BKN050
     FM241300 28007KT P6SM SCT050=



000
FTUS41 KBUF 232000 AAA
TAFIAG
TAF AMD
KIAG 232057Z 2321/2418 32012KT P6SM SKC
     FM240000 32006KT P6SM SKC
     FM241100 28005KT P6SM SCT250=



000
FTUS41 KBUF 231900 AAA
TAFART
TAF AMD
KART 231939Z 2320/2418 01013KT P6SM OVC025
     FM232300 02011KT P6SM VCSH OVC015
     FM240700 01004KT P6SM VCSH OVC025
     FM241100 VRB03KT P6SM OVC030
     FM241500 33007KT P6SM BKN090=



000
FTUS41 KBUF 231900 AAA
TAFART
TAF AMD
KART 231939Z 2320/2418 01013KT P6SM OVC025
     FM232300 02011KT P6SM VCSH OVC015
     FM240700 01004KT P6SM VCSH OVC025
     FM241100 VRB03KT P6SM OVC030
     FM241500 33007KT P6SM BKN090=



000
FTUS41 KBUF 231900 AAA
TAFROC
TAF AMD
KROC 231928Z 2319/2418 32016KT P6SM FEW040 BKN060
     FM232300 33009KT P6SM BKN035
     FM240800 28006KT P6SM BKN050
     FM241300 28007KT P6SM SCT050=



000
FTUS41 KBUF 231700
TAFJHW
TAF
KJHW 231730Z 2318/2418 33012G19KT P6SM SCT050
     FM240200 33005KT P6SM SKC
     FM241200 29004KT P6SM SCT250
      AMD LTD TO CLD VIS AND WIND=



000
FTUS41 KBUF 231700
TAFART
TAF
KART 231730Z 2318/2418 36014G22KT P6SM BKN035
     FM232300 02011KT P6SM BKN020
     FM240700 01004KT P6SM OVC035
     FM241100 VRB03KT P6SM OVC080
     FM241500 33007KT P6SM BKN090=



000
FTUS41 KBUF 231700
TAFBUF
TAF
KBUF 231730Z 2318/2418 35010KT P6SM FEW035 SCT060
     FM240000 33006KT P6SM FEW250
     FM240800 29004KT P6SM SKC
     FM241500 27005KT P6SM SCT250=



000
FTUS41 KBUF 231700
TAFROC
TAF
KROC 231730Z 2318/2418 35012G20KT P6SM BKN050
     FM232300 33009KT P6SM BKN035
     FM240800 28006KT P6SM BKN050
     FM241300 28007KT P6SM SCT050=



000
FTUS41 KBUF 231700
TAFIAG
TAF
KIAG 231730Z 2318/2418 31012G18KT P6SM FEW035 SCT060
     FM240200 32006KT P6SM SKC
     FM241100 28005KT P6SM SCT250=



000
FTUS41 KBUF 231500 AAA
TAFBUF
TAF AMD
KBUF 231503Z 2315/2412 35010KT P6SM FEW250
     FM240000 32006KT P6SM FEW250
     FM240800 29004KT P6SM FEW250=



000
FTUS41 KBUF 231500 AAA
TAFIAG
TAF AMD
KIAG 231503Z 2315/2412 35010KT P6SM FEW250
     FM240000 33007KT P6SM FEW250
     FM240600 32004KT P6SM FEW250=



000
FTUS41 KBUF 231500 AAA
TAFROC
TAF AMD
KROC 231503Z 2315/2412 35013G19KT P6SM BKN050
     FM231800 35013G19KT P6SM BKN035
     FM232200 34009KT P6SM BKN035
     FM240300 32007KT P6SM BKN050
     FM241000 28007KT P6SM BKN120=



000
FTUS41 KBUF 231500 AAA
TAFJHW
TAF AMD
KJHW 231503Z 2315/2412 35012G19KT P6SM FEW250
     FM232200 32009KT P6SM FEW250
     FM240600 31004KT P6SM FEW250
      AMD LTD TO CLD VIS AND WIND=



000
FTUS41 KBUF 231500 AAA
TAFART
TAF AMD
KART 231503Z 2315/2412 03014G21KT P6SM SCT025
     FM231700 02016G24KT P6SM BKN020
     FM232200 02012KT P6SM BKN020
     FM240100 02009KT P6SM BKN040
     FM240300 02007KT P6SM BKN080
     FM240800 VRB03KT P6SM BKN080=



000
FTUS41 KBUF 231100
TAFART
TAF
KART 231122Z 2312/2412 03014G21KT P6SM OVC025
     FM231600 02016G24KT P6SM OVC020
     FM232200 02012KT P6SM BKN020
     FM240100 02009KT P6SM BKN040
     FM240300 02007KT P6SM BKN080
     FM240800 VRB03KT P6SM BKN080=



000
FTUS41 KBUF 231100
TAFIAG
TAF
KIAG 231122Z 2312/2412 35007KT P6SM FEW060
     FM231500 35010KT P6SM FEW250
     FM240000 33007KT P6SM FEW250
     FM240600 32004KT P6SM FEW250=



000
FTUS41 KBUF 231100
TAFROC
TAF
KROC 231122Z 2312/2412 35010KT P6SM BKN070
     FM231500 35013G19KT P6SM BKN050
     FM231800 35013G19KT P6SM BKN035
     FM232200 34009KT P6SM BKN035
     FM240300 32007KT P6SM BKN050
     FM241000 28007KT P6SM BKN120=



000
FTUS41 KBUF 231100
TAFBUF
TAF
KBUF 231122Z 2312/2412 34006KT P6SM SKC
     FM231500 35010KT P6SM FEW250
     FM240000 32006KT P6SM FEW250
     FM240800 29004KT P6SM FEW250=



000
FTUS41 KBUF 231100
TAFJHW
TAF
KJHW 231122Z 2312/2412 34011KT P6SM BKN007
     FM231300 34011KT P6SM SCT007
     FM231500 35012G19KT P6SM FEW250
     FM232200 32009KT P6SM FEW250
     FM240600 31004KT P6SM FEW250
      AMD LTD TO CLD VIS AND WIND=



000
FTUS41 KBUF 230900 AAA
TAFART
TAF AMD
KART 230907Z 2309/2406 03011KT P6SM BKN060 WS020/03045KT
      TEMPO 2309/2312 BKN018
     FM231300 02012KT P6SM BKN045
     FM231500 02013KT P6SM OVC025
     FM232100 02011KT P6SM OVC035
     FM232300 02007KT P6SM VCSH OVC035=



000
FTUS41 KBUF 230900 AAA
TAFJHW
TAF AMD
KJHW 230907Z 2309/2406 36010KT P6SM BKN009
     FM231300 35009KT P6SM SCT200
     FM231500 34011KT P6SM SCT035
     FM240100 31006KT P6SM BKN250
      AMD LTD TO CLD VIS AND WIND=



000
FTUS41 KBUF 230900 AAA
TAFBUF
TAF AMD
KBUF 230907Z 2309/2406 34006KT P6SM SKC
     FM231500 35010KT P6SM SCT040
     FM240100 31005KT P6SM BKN250=



000
FTUS41 KBUF 230900 AAA
TAFROC
TAF AMD
KROC 230907Z 2309/2406 01011KT P6SM SCT070
     FM231000 36011KT P6SM BKN070
     FM231300 35012KT P6SM BKN040
     FM232100 33009KT P6SM BKN040
     FM240200 32006KT P6SM BKN040=



000
FTUS41 KBUF 230900 AAA
TAFIAG
TAF AMD
KIAG 230907Z 2309/2406 35006KT P6SM SKC
     FM231500 35010KT P6SM SCT050
     FM240100 31006KT P6SM BKN250=



000
FTUS41 KBUF 230500
TAFJHW
TAF
KJHW 230534Z 2306/2406 01006KT P6SM BKN007
     FM230700 01006KT P6SM BKN012
     FM230800 36006KT 2SM BR BKN003
     FM231300 35009KT P6SM SCT200
     FM231500 34011KT P6SM SCT035
     FM240100 31006KT P6SM BKN250
      AMD LTD TO CLD VIS AND WIND=



000
FTUS41 KBUF 230500
TAFART
TAF
KART 230534Z 2306/2406 04011KT P6SM BKN250 WS020/03045KT
     FM230900 03011KT P6SM BKN060 WS020/03045KT
     FM231300 02012KT P6SM BKN045
     FM231500 02013KT P6SM OVC025
     FM232100 02011KT P6SM OVC035
     FM232300 02007KT P6SM VCSH OVC035=



000
FTUS41 KBUF 230500
TAFROC
TAF
KROC 230534Z 2306/2406 02011KT P6SM SCT060
     FM231000 36011KT P6SM BKN090
     FM231300 35012KT P6SM BKN040
     FM232100 33009KT P6SM BKN040
     FM240200 32006KT P6SM BKN040=



000
FTUS41 KBUF 230500
TAFBUF
TAF
KBUF 230534Z 2306/2406 34006KT P6SM FEW050
     FM230900 35006KT P6SM FEW250
     FM231500 35010KT P6SM SCT040
     FM240100 31005KT P6SM BKN250=



000
FTUS41 KBUF 230500
TAFIAG
TAF
KIAG 230534Z 2306/2406 36006KT P6SM FEW050
     FM230900 36007KT P6SM FEW250
     FM231500 35010KT P6SM SCT050
     FM240100 31006KT P6SM BKN250=



    US Dept of Commerce
    National Oceanic and Atmospheric Administration
    National Weather Service
    1325 East West Highway
    Silver Spring, MD 20910
    Page Author: NWS Internet Services Team
Disclaimer
Information Quality
Credits
Glossary
Privacy Policy
Freedom of Information Act (FOIA)
About Us
Career Opportunities